sensor_id;sensor_type;location;lat;lon;timestamp;temperature;humidity
2162;DHT22;1087;50.226;8.682;2023-02-28T00:01:07;3.80;99.90
2162;DHT22;1087;50.226;8.682;2023-02-28T00:03:32;3.80;99.90
2162;DHT22;1087;50.226;8.682;2023-02-28T00:06:01;3.80;99.90
2162;DHT22;1087;50.226;8.682;2023-02-28T00:08:27;3.90;99.90
2162;DHT22;1087;50.226;8.682;2023-02-28T00:10:53;3.90;99.90
2162;DHT22;1087;50.226;8.682;2023-02-28T00:13:19;3.80;99.90
2162;DHT22;1087;50.226;8.682;2023-02-28T00:15:44;3.80;99.90
2162;DHT22;1087;50.226;8.682;2023-02-28T00:18:10;3.80;99.90
2162;DHT22;1087;50.226;8.682;2023-02-28T00:20:37;3.70;99.90
2162;DHT22;1087;50.226;8.682;2023-02-28T00:23:03;3.70;99.90
2162;DHT22;1087;50.226;8.682;2023-02-28T00:25:28;3.60;99.90
2162;DHT22;1087;50.226;8.682;2023-02-28T00:27:54;3.50;99.90
2162;DHT22;1087;50.226;8.682;2023-02-28T00:30:21;3.50;99.90
2162;DHT22;1087;50.226;8.682;2023-02-28T00:32:47;3.40;99.90
2162;DHT22;1087;50.226;8.682;2023-02-28T00:35:13;3.40;99.90
2162;DHT22;1087;50.226;8.682;2023-02-28T00:37:39;3.40;99.90
2162;DHT22;1087;50.226;8.682;2023-02-28T00:40:05;3.50;99.90
2162;DHT22;1087;50.226;8.682;2023-02-28T00:42:32;3.40;99.90
2162;DHT22;1087;50.226;8.682;2023-02-28T00:44:57;3.30;99.90
2162;DHT22;1087;50.226;8.682;2023-02-28T00:47:23;3.40;99.90
2162;DHT22;1087;50.226;8.682;2023-02-28T00:49:48;3.30;99.90
2162;DHT22;1087;50.226;8.682;2023-02-28T00:52:14;3.40;99.90
2162;DHT22;1087;50.226;8.682;2023-02-28T00:54:39;3.50;99.90
2162;DHT22;1087;50.226;8.682;2023-02-28T00:57:05;3.40;99.90
2162;DHT22;1087;50.226;8.682;2023-02-28T00:59:30;3.40;99.90
2162;DHT22;1087;50.226;8.682;2023-02-28T01:01:56;3.40;99.90
2162;DHT22;1087;50.226;8.682;2023-02-28T01:04:22;3.30;99.90
2162;DHT22;1087;50.226;8.682;2023-02-28T01:06:48;3.40;99.90
2162;DHT22;1087;50.226;8.682;2023-02-28T01:09:14;3.40;99.90
2162;DHT22;1087;50.226;8.682;2023-02-28T01:11:39;3.30;99.90
2162;DHT22;1087;50.226;8.682;2023-02-28T01:14:07;3.30;99.90
2162;DHT22;1087;50.226;8.682;2023-02-28T01:16:33;3.40;99.90
2162;DHT22;1087;50.226;8.682;2023-02-28T01:18:59;3.20;99.90
2162;DHT22;1087;50.226;8.682;2023-02-28T01:21:24;3.10;99.90
2162;DHT22;1087;50.226;8.682;2023-02-28T01:23:50;3.10;99.90
2162;DHT22;1087;50.226;8.682;2023-02-28T01:26:19;3.20;99.90
2162;DHT22;1087;50.226;8.682;2023-02-28T01:28:45;3.20;99.90
2162;DHT22;1087;50.226;8.682;2023-02-28T01:31:11;3.20;99.90
2162;DHT22;1087;50.226;8.682;2023-02-28T01:33:37;3.10;99.90
2162;DHT22;1087;50.226;8.682;2023-02-28T01:36:05;3.10;99.90
2162;DHT22;1087;50.226;8.682;2023-02-28T01:38:33;3.10;99.90
2162;DHT22;1087;50.226;8.682;2023-02-28T01:40:59;3.10;99.90
2162;DHT22;1087;50.226;8.682;2023-02-28T01:43:32;2.90;99.90
2162;DHT22;1087;50.226;8.682;2023-02-28T01:46:01;2.70;99.90
2162;DHT22;1087;50.226;8.682;2023-02-28T01:48:33;2.70;99.90
2162;DHT22;1087;50.226;8.682;2023-02-28T01:51:05;2.70;99.90
2162;DHT22;1087;50.226;8.682;2023-02-28T01:53:36;2.80;99.90
2162;DHT22;1087;50.226;8.682;2023-02-28T01:56:05;2.70;99.90
2162;DHT22;1087;50.226;8.682;2023-02-28T01:58:32;2.50;99.90
2162;DHT22;1087;50.226;8.682;2023-02-28T02:00:58;2.50;99.90
2162;DHT22;1087;50.226;8.682;2023-02-28T02:03:23;2.30;99.90
2162;DHT22;1087;50.226;8.682;2023-02-28T02:05:49;2.20;99.90
2162;DHT22;1087;50.226;8.682;2023-02-28T02:08:21;2.20;99.90
2162;DHT22;1087;50.226;8.682;2023-02-28T02:10:55;2.40;99.90
2162;DHT22;1087;50.226;8.682;2023-02-28T02:16:14;2.40;99.90
2162;DHT22;1087;50.226;8.682;2023-02-28T02:27:17;2.20;99.90
2162;DHT22;1087;50.226;8.682;2023-02-28T02:35:42;2.10;99.90
2162;DHT22;1087;50.226;8.682;2023-02-28T02:38:19;2.10;99.90
2162;DHT22;1087;50.226;8.682;2023-02-28T02:41:08;2.10;99.90
2162;DHT22;1087;50.226;8.682;2023-02-28T02:46:20;2.10;99.90
2162;DHT22;1087;50.226;8.682;2023-02-28T02:48:47;2.10;99.90
2162;DHT22;1087;50.226;8.682;2023-02-28T02:51:18;2.20;99.90
2162;DHT22;1087;50.226;8.682;2023-02-28T02:53:55;2.20;99.90
2162;DHT22;1087;50.226;8.682;2023-02-28T02:56:25;2.20;99.90
2162;DHT22;1087;50.226;8.682;2023-02-28T02:58:54;2.30;99.90
2162;DHT22;1087;50.226;8.682;2023-02-28T03:01:23;2.40;99.90
2162;DHT22;1087;50.226;8.682;2023-02-28T03:04:02;2.30;99.90
2162;DHT22;1087;50.226;8.682;2023-02-28T03:06:29;2.20;99.90
2162;DHT22;1087;50.226;8.682;2023-02-28T03:08:54;2.20;99.90
2162;DHT22;1087;50.226;8.682;2023-02-28T03:11:20;2.10;99.90
2162;DHT22;1087;50.226;8.682;2023-02-28T03:20:04;2.30;99.90
2162;DHT22;1087;50.226;8.682;2023-02-28T03:25:13;2.30;99.90
2162;DHT22;1087;50.226;8.682;2023-02-28T03:30:41;2.30;99.90
2162;DHT22;1087;50.226;8.682;2023-02-28T03:36:07;2.20;99.90
2162;DHT22;1087;50.226;8.682;2023-02-28T03:38:54;2.30;99.90
2162;DHT22;1087;50.226;8.682;2023-02-28T03:41:27;2.20;99.90
2162;DHT22;1087;50.226;8.682;2023-02-28T03:43:59;1.90;99.90
2162;DHT22;1087;50.226;8.682;2023-02-28T03:46:29;1.90;99.90
2162;DHT22;1087;50.226;8.682;2023-02-28T03:49:03;1.80;99.90
2162;DHT22;1087;50.226;8.682;2023-02-28T03:51:31;1.90;99.90
2162;DHT22;1087;50.226;8.682;2023-02-28T03:54:06;2.00;99.90
2162;DHT22;1087;50.226;8.682;2023-02-28T03:56:57;1.90;99.90
2162;DHT22;1087;50.226;8.682;2023-02-28T03:59:33;1.80;99.90
2162;DHT22;1087;50.226;8.682;2023-02-28T04:01:59;1.60;99.90
2162;DHT22;1087;50.226;8.682;2023-02-28T04:04:25;1.80;99.90
2162;DHT22;1087;50.226;8.682;2023-02-28T04:06:52;1.70;99.90
2162;DHT22;1087;50.226;8.682;2023-02-28T04:09:18;1.90;99.90
2162;DHT22;1087;50.226;8.682;2023-02-28T04:11:53;2.00;99.90
2162;DHT22;1087;50.226;8.682;2023-02-28T04:14:18;1.90;99.90
2162;DHT22;1087;50.226;8.682;2023-02-28T04:16:44;2.00;99.90
2162;DHT22;1087;50.226;8.682;2023-02-28T04:19:12;1.90;99.90
2162;DHT22;1087;50.226;8.682;2023-02-28T04:21:41;2.00;99.90
2162;DHT22;1087;50.226;8.682;2023-02-28T04:24:08;2.00;99.90
2162;DHT22;1087;50.226;8.682;2023-02-28T04:26:39;2.10;99.90
2162;DHT22;1087;50.226;8.682;2023-02-28T04:29:05;1.90;99.90
2162;DHT22;1087;50.226;8.682;2023-02-28T04:31:33;2.00;99.90
2162;DHT22;1087;50.226;8.682;2023-02-28T04:33:59;1.70;99.90
2162;DHT22;1087;50.226;8.682;2023-02-28T04:36:25;1.80;99.90
2162;DHT22;1087;50.226;8.682;2023-02-28T04:38:50;1.80;99.90
2162;DHT22;1087;50.226;8.682;2023-02-28T04:41:16;1.80;99.90
2162;DHT22;1087;50.226;8.682;2023-02-28T04:43:42;1.60;99.90
2162;DHT22;1087;50.226;8.682;2023-02-28T04:46:08;1.50;99.90
2162;DHT22;1087;50.226;8.682;2023-02-28T04:48:37;1.70;99.90
2162;DHT22;1087;50.226;8.682;2023-02-28T04:51:05;1.70;99.90
2162;DHT22;1087;50.226;8.682;2023-02-28T04:53:31;1.70;99.90
2162;DHT22;1087;50.226;8.682;2023-02-28T04:55:57;1.70;99.90
2162;DHT22;1087;50.226;8.682;2023-02-28T04:58:22;1.90;99.90
2162;DHT22;1087;50.226;8.682;2023-02-28T05:00:52;1.70;99.90
2162;DHT22;1087;50.226;8.682;2023-02-28T05:03:18;1.60;99.90
2162;DHT22;1087;50.226;8.682;2023-02-28T05:05:43;1.70;99.90
2162;DHT22;1087;50.226;8.682;2023-02-28T05:08:10;1.80;99.90
2162;DHT22;1087;50.226;8.682;2023-02-28T05:10:36;1.70;99.90
2162;DHT22;1087;50.226;8.682;2023-02-28T05:13:02;1.60;99.90
2162;DHT22;1087;50.226;8.682;2023-02-28T05:15:27;1.70;99.90
2162;DHT22;1087;50.226;8.682;2023-02-28T05:17:53;1.60;99.90
2162;DHT22;1087;50.226;8.682;2023-02-28T05:20:18;1.80;99.90
2162;DHT22;1087;50.226;8.682;2023-02-28T05:22:44;1.90;99.90
2162;DHT22;1087;50.226;8.682;2023-02-28T05:25:13;1.60;99.90
2162;DHT22;1087;50.226;8.682;2023-02-28T05:27:41;1.50;99.90
2162;DHT22;1087;50.226;8.682;2023-02-28T05:30:07;1.50;99.90
2162;DHT22;1087;50.226;8.682;2023-02-28T05:32:39;1.60;99.90
2162;DHT22;1087;50.226;8.682;2023-02-28T05:35:09;1.50;99.90
2162;DHT22;1087;50.226;8.682;2023-02-28T05:37:34;1.40;99.90
2162;DHT22;1087;50.226;8.682;2023-02-28T05:40:00;1.50;99.90
2162;DHT22;1087;50.226;8.682;2023-02-28T05:42:26;1.50;99.90
2162;DHT22;1087;50.226;8.682;2023-02-28T05:44:51;1.70;99.90
2162;DHT22;1087;50.226;8.682;2023-02-28T05:47:17;1.60;99.90
2162;DHT22;1087;50.226;8.682;2023-02-28T05:49:43;1.30;99.90
2162;DHT22;1087;50.226;8.682;2023-02-28T05:52:08;1.50;99.90
2162;DHT22;1087;50.226;8.682;2023-02-28T05:54:34;1.70;99.90
2162;DHT22;1087;50.226;8.682;2023-02-28T05:56:59;1.70;99.90
2162;DHT22;1087;50.226;8.682;2023-02-28T05:59:25;1.70;99.90
2162;DHT22;1087;50.226;8.682;2023-02-28T06:01:50;1.70;99.90
2162;DHT22;1087;50.226;8.682;2023-02-28T06:04:20;1.80;99.90
2162;DHT22;1087;50.226;8.682;2023-02-28T06:06:46;1.80;99.90
2162;DHT22;1087;50.226;8.682;2023-02-28T06:09:12;1.80;99.90
2162;DHT22;1087;50.226;8.682;2023-02-28T06:11:38;1.70;99.90
2162;DHT22;1087;50.226;8.682;2023-02-28T06:14:04;1.70;99.90
2162;DHT22;1087;50.226;8.682;2023-02-28T06:16:32;1.60;99.90
2162;DHT22;1087;50.226;8.682;2023-02-28T06:18:59;1.80;99.90
2162;DHT22;1087;50.226;8.682;2023-02-28T06:21:26;1.80;99.90
2162;DHT22;1087;50.226;8.682;2023-02-28T06:23:53;1.70;99.90
2162;DHT22;1087;50.226;8.682;2023-02-28T06:26:19;1.80;99.90
2162;DHT22;1087;50.226;8.682;2023-02-28T06:28:45;1.70;99.90
2162;DHT22;1087;50.226;8.682;2023-02-28T06:31:12;1.60;99.90
2162;DHT22;1087;50.226;8.682;2023-02-28T06:33:39;1.60;99.90
2162;DHT22;1087;50.226;8.682;2023-02-28T06:36:06;1.60;99.90
2162;DHT22;1087;50.226;8.682;2023-02-28T06:38:32;1.60;99.90
2162;DHT22;1087;50.226;8.682;2023-02-28T06:40:59;1.60;99.90
2162;DHT22;1087;50.226;8.682;2023-02-28T06:43:27;1.60;99.90
2162;DHT22;1087;50.226;8.682;2023-02-28T06:45:59;1.60;99.90
2162;DHT22;1087;50.226;8.682;2023-02-28T06:48:26;1.60;99.90
2162;DHT22;1087;50.226;8.682;2023-02-28T06:51:00;1.50;99.90
2162;DHT22;1087;50.226;8.682;2023-02-28T06:53:26;1.70;99.90
2162;DHT22;1087;50.226;8.682;2023-02-28T06:55:51;1.80;99.90
2162;DHT22;1087;50.226;8.682;2023-02-28T06:58:17;1.80;99.90
2162;DHT22;1087;50.226;8.682;2023-02-28T07:00:49;1.80;99.90
2162;DHT22;1087;50.226;8.682;2023-02-28T07:03:15;1.90;99.90
2162;DHT22;1087;50.226;8.682;2023-02-28T07:05:41;1.90;99.90
2162;DHT22;1087;50.226;8.682;2023-02-28T07:08:06;1.90;99.90
2162;DHT22;1087;50.226;8.682;2023-02-28T07:10:33;1.90;99.90
2162;DHT22;1087;50.226;8.682;2023-02-28T07:12:59;2.10;99.90
2162;DHT22;1087;50.226;8.682;2023-02-28T07:15:25;2.10;99.90
2162;DHT22;1087;50.226;8.682;2023-02-28T07:17:51;1.90;99.90
2162;DHT22;1087;50.226;8.682;2023-02-28T07:20:16;2.00;99.90
2162;DHT22;1087;50.226;8.682;2023-02-28T07:22:42;1.90;99.90
2162;DHT22;1087;50.226;8.682;2023-02-28T07:25:08;1.90;99.90
2162;DHT22;1087;50.226;8.682;2023-02-28T07:27:34;1.90;99.90
2162;DHT22;1087;50.226;8.682;2023-02-28T07:29:59;1.90;99.90
2162;DHT22;1087;50.226;8.682;2023-02-28T07:32:27;1.90;99.90
2162;DHT22;1087;50.226;8.682;2023-02-28T07:34:53;1.90;99.90
2162;DHT22;1087;50.226;8.682;2023-02-28T07:37:19;2.00;99.90
2162;DHT22;1087;50.226;8.682;2023-02-28T07:39:45;1.90;99.90
2162;DHT22;1087;50.226;8.682;2023-02-28T07:42:10;1.90;99.90
2162;DHT22;1087;50.226;8.682;2023-02-28T07:44:38;2.00;99.90
2162;DHT22;1087;50.226;8.682;2023-02-28T07:47:09;2.10;99.90
2162;DHT22;1087;50.226;8.682;2023-02-28T07:49:38;2.10;99.90
2162;DHT22;1087;50.226;8.682;2023-02-28T07:52:06;2.20;99.90
2162;DHT22;1087;50.226;8.682;2023-02-28T07:54:32;2.10;99.90
2162;DHT22;1087;50.226;8.682;2023-02-28T07:56:58;2.10;99.90
2162;DHT22;1087;50.226;8.682;2023-02-28T07:59:24;2.20;99.90
2162;DHT22;1087;50.226;8.682;2023-02-28T08:01:50;2.10;99.90
2162;DHT22;1087;50.226;8.682;2023-02-28T08:04:18;2.10;99.90
2162;DHT22;1087;50.226;8.682;2023-02-28T08:06:44;2.20;99.90
2162;DHT22;1087;50.226;8.682;2023-02-28T08:09:10;2.30;99.90
2162;DHT22;1087;50.226;8.682;2023-02-28T08:11:36;2.30;99.90
2162;DHT22;1087;50.226;8.682;2023-02-28T08:14:02;2.30;99.90
2162;DHT22;1087;50.226;8.682;2023-02-28T08:16:27;2.40;99.90
2162;DHT22;1087;50.226;8.682;2023-02-28T08:18:53;2.40;99.90
2162;DHT22;1087;50.226;8.682;2023-02-28T08:21:20;2.40;99.90
2162;DHT22;1087;50.226;8.682;2023-02-28T08:23:49;2.50;99.90
2162;DHT22;1087;50.226;8.682;2023-02-28T08:26:19;2.50;99.90
2162;DHT22;1087;50.226;8.682;2023-02-28T08:28:45;2.60;99.90
2162;DHT22;1087;50.226;8.682;2023-02-28T08:31:13;2.70;99.90
2162;DHT22;1087;50.226;8.682;2023-02-28T08:33:40;2.80;99.90
2162;DHT22;1087;50.226;8.682;2023-02-28T08:36:07;2.70;99.90
2162;DHT22;1087;50.226;8.682;2023-02-28T08:38:33;2.80;99.90
2162;DHT22;1087;50.226;8.682;2023-02-28T08:41:01;2.90;99.90
2162;DHT22;1087;50.226;8.682;2023-02-28T08:43:27;3.00;99.90
2162;DHT22;1087;50.226;8.682;2023-02-28T08:45:53;3.10;99.90
2162;DHT22;1087;50.226;8.682;2023-02-28T08:48:19;3.10;99.90
2162;DHT22;1087;50.226;8.682;2023-02-28T08:50:54;3.00;99.90
2162;DHT22;1087;50.226;8.682;2023-02-28T08:53:19;3.10;99.90
2162;DHT22;1087;50.226;8.682;2023-02-28T08:55:45;3.00;99.90
2162;DHT22;1087;50.226;8.682;2023-02-28T08:58:11;3.10;99.90
2162;DHT22;1087;50.226;8.682;2023-02-28T09:00:36;3.20;99.90
2162;DHT22;1087;50.226;8.682;2023-02-28T09:03:02;3.20;99.90
2162;DHT22;1087;50.226;8.682;2023-02-28T09:05:28;3.20;99.90
2162;DHT22;1087;50.226;8.682;2023-02-28T09:07:55;3.40;99.90
2162;DHT22;1087;50.226;8.682;2023-02-28T09:10:20;3.30;99.90
2162;DHT22;1087;50.226;8.682;2023-02-28T09:12:46;3.30;99.90
2162;DHT22;1087;50.226;8.682;2023-02-28T09:15:12;3.30;99.90
2162;DHT22;1087;50.226;8.682;2023-02-28T09:17:38;3.40;99.90
2162;DHT22;1087;50.226;8.682;2023-02-28T09:20:04;3.50;99.90
2162;DHT22;1087;50.226;8.682;2023-02-28T09:22:30;3.50;99.90
2162;DHT22;1087;50.226;8.682;2023-02-28T09:24:55;3.60;99.90
2162;DHT22;1087;50.226;8.682;2023-02-28T09:27:21;3.70;99.90
2162;DHT22;1087;50.226;8.682;2023-02-28T09:29:46;3.60;99.90
2162;DHT22;1087;50.226;8.682;2023-02-28T09:32:12;3.60;99.90
2162;DHT22;1087;50.226;8.682;2023-02-28T09:34:38;3.70;99.90
2162;DHT22;1087;50.226;8.682;2023-02-28T09:37:03;3.80;99.90
2162;DHT22;1087;50.226;8.682;2023-02-28T09:39:29;3.90;99.90
2162;DHT22;1087;50.226;8.682;2023-02-28T09:41:55;4.00;99.90
2162;DHT22;1087;50.226;8.682;2023-02-28T09:44:38;4.00;99.90
2162;DHT22;1087;50.226;8.682;2023-02-28T09:49:56;3.80;99.90
2162;DHT22;1087;50.226;8.682;2023-02-28T09:52:29;3.80;99.90
2162;DHT22;1087;50.226;8.682;2023-02-28T09:54:55;4.00;99.90
2162;DHT22;1087;50.226;8.682;2023-02-28T09:57:35;4.10;99.90
2162;DHT22;1087;50.226;8.682;2023-02-28T10:03:04;4.20;99.90
2162;DHT22;1087;50.226;8.682;2023-02-28T10:08:05;4.20;99.90
2162;DHT22;1087;50.226;8.682;2023-02-28T10:13:01;4.30;99.90
2162;DHT22;1087;50.226;8.682;2023-02-28T10:15:30;4.30;99.90
2162;DHT22;1087;50.226;8.682;2023-02-28T10:18:02;4.30;99.90
2162;DHT22;1087;50.226;8.682;2023-02-28T10:20:32;4.20;99.90
2162;DHT22;1087;50.226;8.682;2023-02-28T10:23:08;4.10;99.90
2162;DHT22;1087;50.226;8.682;2023-02-28T10:25:37;4.00;99.90
2162;DHT22;1087;50.226;8.682;2023-02-28T10:28:16;4.10;99.90
2162;DHT22;1087;50.226;8.682;2023-02-28T10:30:51;3.90;99.90
2162;DHT22;1087;50.226;8.682;2023-02-28T10:35:52;3.80;99.90
2162;DHT22;1087;50.226;8.682;2023-02-28T10:38:32;3.80;99.90
2162;DHT22;1087;50.226;8.682;2023-02-28T10:41:07;3.90;99.90
2162;DHT22;1087;50.226;8.682;2023-02-28T10:43:34;4.00;99.90
2162;DHT22;1087;50.226;8.682;2023-02-28T10:48:39;4.00;99.90
2162;DHT22;1087;50.226;8.682;2023-02-28T10:51:07;4.10;99.90
2162;DHT22;1087;50.226;8.682;2023-02-28T11:01:21;4.30;99.90
2162;DHT22;1087;50.226;8.682;2023-02-28T11:03:48;4.20;99.90
2162;DHT22;1087;50.226;8.682;2023-02-28T11:06:20;4.20;99.90
2162;DHT22;1087;50.226;8.682;2023-02-28T11:08:50;4.30;99.90
2162;DHT22;1087;50.226;8.682;2023-02-28T11:11:17;4.50;99.90
2162;DHT22;1087;50.226;8.682;2023-02-28T11:13:44;4.50;99.90
2162;DHT22;1087;50.226;8.682;2023-02-28T11:16:12;4.70;99.90
2162;DHT22;1087;50.226;8.682;2023-02-28T11:18:46;4.80;99.90
2162;DHT22;1087;50.226;8.682;2023-02-28T11:21:26;4.90;99.90
2162;DHT22;1087;50.226;8.682;2023-02-28T11:24:00;4.90;99.90
2162;DHT22;1087;50.226;8.682;2023-02-28T11:26:47;4.90;99.90
2162;DHT22;1087;50.226;8.682;2023-02-28T11:29:31;4.80;99.90
2162;DHT22;1087;50.226;8.682;2023-02-28T11:32:16;4.70;99.90
2162;DHT22;1087;50.226;8.682;2023-02-28T11:34:42;4.70;99.90
2162;DHT22;1087;50.226;8.682;2023-02-28T11:37:18;4.90;99.90
2162;DHT22;1087;50.226;8.682;2023-02-28T11:39:45;5.00;99.90
2162;DHT22;1087;50.226;8.682;2023-02-28T11:45:31;5.00;99.90
2162;DHT22;1087;50.226;8.682;2023-02-28T11:48:20;5.00;99.90
2162;DHT22;1087;50.226;8.682;2023-02-28T11:53:58;5.10;99.90
2162;DHT22;1087;50.226;8.682;2023-02-28T11:56:33;5.20;99.90
2162;DHT22;1087;50.226;8.682;2023-02-28T11:59:18;5.20;99.90
2162;DHT22;1087;50.226;8.682;2023-02-28T12:04:42;5.30;99.90
2162;DHT22;1087;50.226;8.682;2023-02-28T12:07:39;5.40;99.90
2162;DHT22;1087;50.226;8.682;2023-02-28T12:10:22;5.40;99.90
2162;DHT22;1087;50.226;8.682;2023-02-28T12:18:48;5.50;99.90
2162;DHT22;1087;50.226;8.682;2023-02-28T12:26:52;5.60;99.90
2162;DHT22;1087;50.226;8.682;2023-02-28T12:29:30;5.60;99.90
2162;DHT22;1087;50.226;8.682;2023-02-28T12:32:23;5.70;99.90
2162;DHT22;1087;50.226;8.682;2023-02-28T12:35:02;5.70;99.90
2162;DHT22;1087;50.226;8.682;2023-02-28T12:40:07;5.70;99.90
2162;DHT22;1087;50.226;8.682;2023-02-28T12:42:40;5.70;99.90
2162;DHT22;1087;50.226;8.682;2023-02-28T12:45:16;5.70;99.90
2162;DHT22;1087;50.226;8.682;2023-02-28T12:47:48;5.70;99.90
2162;DHT22;1087;50.226;8.682;2023-02-28T12:50:17;5.80;99.90
2162;DHT22;1087;50.226;8.682;2023-02-28T12:58:29;5.90;99.90
2162;DHT22;1087;50.226;8.682;2023-02-28T13:10:02;5.80;99.90
2162;DHT22;1087;50.226;8.682;2023-02-28T13:12:28;6.00;99.90
2162;DHT22;1087;50.226;8.682;2023-02-28T13:15:18;6.00;99.90
2162;DHT22;1087;50.226;8.682;2023-02-28T13:17:52;6.10;99.90
2162;DHT22;1087;50.226;8.682;2023-02-28T13:20:35;6.00;99.90
2162;DHT22;1087;50.226;8.682;2023-02-28T13:23:01;6.00;99.90
2162;DHT22;1087;50.226;8.682;2023-02-28T13:28:00;6.00;99.90
2162;DHT22;1087;50.226;8.682;2023-02-28T13:38:38;6.20;99.90
2162;DHT22;1087;50.226;8.682;2023-02-28T13:44:14;6.30;99.90
2162;DHT22;1087;50.226;8.682;2023-02-28T13:52:02;6.30;99.90
2162;DHT22;1087;50.226;8.682;2023-02-28T13:54:57;6.30;99.90
2162;DHT22;1087;50.226;8.682;2023-02-28T14:06:28;6.50;99.90
2162;DHT22;1087;50.226;8.682;2023-02-28T14:11:26;6.40;99.90
2162;DHT22;1087;50.226;8.682;2023-02-28T14:13:52;6.40;99.90
2162;DHT22;1087;50.226;8.682;2023-02-28T14:16:22;6.40;99.90
2162;DHT22;1087;50.226;8.682;2023-02-28T14:19:01;6.50;99.90
2162;DHT22;1087;50.226;8.682;2023-02-28T14:21:33;6.60;99.90
2162;DHT22;1087;50.226;8.682;2023-02-28T14:29:43;6.50;99.90
2162;DHT22;1087;50.226;8.682;2023-02-28T14:32:31;6.50;99.90
2162;DHT22;1087;50.226;8.682;2023-02-28T14:37:51;6.50;99.90
2162;DHT22;1087;50.226;8.682;2023-02-28T14:40:37;6.50;99.90
2162;DHT22;1087;50.226;8.682;2023-02-28T14:43:06;6.60;99.90
2162;DHT22;1087;50.226;8.682;2023-02-28T14:45:34;6.60;99.90
2162;DHT22;1087;50.226;8.682;2023-02-28T14:48:02;6.50;99.90
2162;DHT22;1087;50.226;8.682;2023-02-28T14:50:31;6.30;99.90
2162;DHT22;1087;50.226;8.682;2023-02-28T14:52:59;6.30;99.90
2162;DHT22;1087;50.226;8.682;2023-02-28T14:55:29;6.20;99.90
2162;DHT22;1087;50.226;8.682;2023-02-28T14:58:00;6.20;99.90
2162;DHT22;1087;50.226;8.682;2023-02-28T15:00:29;6.30;99.90
2162;DHT22;1087;50.226;8.682;2023-02-28T15:03:00;6.30;99.90
2162;DHT22;1087;50.226;8.682;2023-02-28T15:05:34;6.30;99.90
2162;DHT22;1087;50.226;8.682;2023-02-28T15:08:14;6.30;99.90
2162;DHT22;1087;50.226;8.682;2023-02-28T15:13:52;6.20;99.90
2162;DHT22;1087;50.226;8.682;2023-02-28T15:16:25;6.10;99.90
2162;DHT22;1087;50.226;8.682;2023-02-28T15:18:55;6.20;99.90
2162;DHT22;1087;50.226;8.682;2023-02-28T15:21:28;6.20;99.90
2162;DHT22;1087;50.226;8.682;2023-02-28T15:24:17;6.30;99.90
2162;DHT22;1087;50.226;8.682;2023-02-28T15:26:54;6.20;99.90
2162;DHT22;1087;50.226;8.682;2023-02-28T15:29:23;5.90;99.90
2162;DHT22;1087;50.226;8.682;2023-02-28T15:34:40;5.90;99.90
2162;DHT22;1087;50.226;8.682;2023-02-28T15:37:48;5.90;99.90
2162;DHT22;1087;50.226;8.682;2023-02-28T15:40:27;5.80;99.90
2162;DHT22;1087;50.226;8.682;2023-02-28T15:45:51;5.80;99.90
2162;DHT22;1087;50.226;8.682;2023-02-28T15:48:22;5.70;99.90
2162;DHT22;1087;50.226;8.682;2023-02-28T15:56:27;5.70;99.90
2162;DHT22;1087;50.226;8.682;2023-02-28T15:59:05;5.80;99.90
2162;DHT22;1087;50.226;8.682;2023-02-28T16:01:38;5.70;99.90
2162;DHT22;1087;50.226;8.682;2023-02-28T16:04:18;5.80;99.90
2162;DHT22;1087;50.226;8.682;2023-02-28T16:07:05;5.80;99.90
2162;DHT22;1087;50.226;8.682;2023-02-28T16:09:31;5.80;99.90
2162;DHT22;1087;50.226;8.682;2023-02-28T16:12:00;5.70;99.90
2162;DHT22;1087;50.226;8.682;2023-02-28T16:14:28;5.80;99.90
2162;DHT22;1087;50.226;8.682;2023-02-28T16:17:06;5.90;99.90
2162;DHT22;1087;50.226;8.682;2023-02-28T16:19:32;5.90;99.90
2162;DHT22;1087;50.226;8.682;2023-02-28T16:21:57;5.90;99.90
2162;DHT22;1087;50.226;8.682;2023-02-28T16:24:23;5.90;99.90
2162;DHT22;1087;50.226;8.682;2023-02-28T16:26:50;5.80;99.90
2162;DHT22;1087;50.226;8.682;2023-02-28T16:29:24;5.70;99.90
2162;DHT22;1087;50.226;8.682;2023-02-28T16:31:52;5.50;99.90
2162;DHT22;1087;50.226;8.682;2023-02-28T16:34:19;5.40;99.90
2162;DHT22;1087;50.226;8.682;2023-02-28T16:36:46;5.60;99.90
2162;DHT22;1087;50.226;8.682;2023-02-28T16:39:12;5.40;99.90
2162;DHT22;1087;50.226;8.682;2023-02-28T16:41:37;5.40;99.90
2162;DHT22;1087;50.226;8.682;2023-02-28T16:44:12;5.50;99.90
2162;DHT22;1087;50.226;8.682;2023-02-28T16:46:38;5.50;99.90
2162;DHT22;1087;50.226;8.682;2023-02-28T16:49:03;5.40;99.90
2162;DHT22;1087;50.226;8.682;2023-02-28T16:51:29;5.30;99.90
2162;DHT22;1087;50.226;8.682;2023-02-28T16:53:54;5.40;99.90
2162;DHT22;1087;50.226;8.682;2023-02-28T16:56:23;5.20;99.90
2162;DHT22;1087;50.226;8.682;2023-02-28T16:58:49;5.20;99.90
2162;DHT22;1087;50.226;8.682;2023-02-28T17:01:16;5.30;99.90
2162;DHT22;1087;50.226;8.682;2023-02-28T17:03:42;5.40;99.90
2162;DHT22;1087;50.226;8.682;2023-02-28T17:06:22;5.30;99.90
2162;DHT22;1087;50.226;8.682;2023-02-28T17:08:49;5.40;99.90
2162;DHT22;1087;50.226;8.682;2023-02-28T17:11:15;5.60;99.90
2162;DHT22;1087;50.226;8.682;2023-02-28T17:13:41;5.50;99.90
2162;DHT22;1087;50.226;8.682;2023-02-28T17:16:17;5.50;99.90
2162;DHT22;1087;50.226;8.682;2023-02-28T17:18:44;5.50;99.90
2162;DHT22;1087;50.226;8.682;2023-02-28T17:21:13;5.60;99.90
2162;DHT22;1087;50.226;8.682;2023-02-28T17:23:39;5.60;99.90
2162;DHT22;1087;50.226;8.682;2023-02-28T17:26:05;5.60;99.90
2162;DHT22;1087;50.226;8.682;2023-02-28T17:28:32;5.50;99.90
2162;DHT22;1087;50.226;8.682;2023-02-28T17:30:57;5.40;99.90
2162;DHT22;1087;50.226;8.682;2023-02-28T17:33:23;5.50;99.90
2162;DHT22;1087;50.226;8.682;2023-02-28T17:35:48;5.40;99.90
2162;DHT22;1087;50.226;8.682;2023-02-28T17:38:17;5.30;99.90
2162;DHT22;1087;50.226;8.682;2023-02-28T17:40:43;5.30;99.90
2162;DHT22;1087;50.226;8.682;2023-02-28T17:43:08;5.40;99.90
2162;DHT22;1087;50.226;8.682;2023-02-28T17:45:34;5.30;99.90
2162;DHT22;1087;50.226;8.682;2023-02-28T17:48:01;5.30;99.90
2162;DHT22;1087;50.226;8.682;2023-02-28T17:50:26;5.30;99.90
2162;DHT22;1087;50.226;8.682;2023-02-28T17:52:52;5.30;99.90
2162;DHT22;1087;50.226;8.682;2023-02-28T17:55:18;5.20;99.90
2162;DHT22;1087;50.226;8.682;2023-02-28T17:57:46;5.10;99.90
2162;DHT22;1087;50.226;8.682;2023-02-28T18:00:14;5.20;99.90
2162;DHT22;1087;50.226;8.682;2023-02-28T18:02:41;5.00;99.90
2162;DHT22;1087;50.226;8.682;2023-02-28T18:05:07;4.90;99.90
2162;DHT22;1087;50.226;8.682;2023-02-28T18:07:32;4.80;99.90
2162;DHT22;1087;50.226;8.682;2023-02-28T18:09:58;4.80;99.90
2162;DHT22;1087;50.226;8.682;2023-02-28T18:12:23;4.80;99.90
2162;DHT22;1087;50.226;8.682;2023-02-28T18:14:49;4.70;99.90
2162;DHT22;1087;50.226;8.682;2023-02-28T18:17:15;4.70;99.90
2162;DHT22;1087;50.226;8.682;2023-02-28T18:19:41;4.80;99.90
2162;DHT22;1087;50.226;8.682;2023-02-28T18:22:06;4.70;99.90
2162;DHT22;1087;50.226;8.682;2023-02-28T18:24:32;4.70;99.90
2162;DHT22;1087;50.226;8.682;2023-02-28T18:26:58;4.80;99.90
2162;DHT22;1087;50.226;8.682;2023-02-28T18:29:25;4.80;99.90
2162;DHT22;1087;50.226;8.682;2023-02-28T18:31:52;4.80;99.90
2162;DHT22;1087;50.226;8.682;2023-02-28T18:34:18;4.70;99.90
2162;DHT22;1087;50.226;8.682;2023-02-28T18:36:45;4.70;99.90
2162;DHT22;1087;50.226;8.682;2023-02-28T18:39:13;4.70;99.90
2162;DHT22;1087;50.226;8.682;2023-02-28T18:41:39;4.80;99.90
2162;DHT22;1087;50.226;8.682;2023-02-28T18:44:05;4.70;99.90
2162;DHT22;1087;50.226;8.682;2023-02-28T18:46:30;4.70;99.90
2162;DHT22;1087;50.226;8.682;2023-02-28T18:48:56;4.70;99.90
2162;DHT22;1087;50.226;8.682;2023-02-28T18:51:23;4.60;99.90
2162;DHT22;1087;50.226;8.682;2023-02-28T18:53:49;4.50;99.90
2162;DHT22;1087;50.226;8.682;2023-02-28T18:56:17;4.50;99.90
2162;DHT22;1087;50.226;8.682;2023-02-28T18:58:44;4.40;99.90